Time;durP1;ratioP1;P1;durP2;ratioP2;P2;SDS_P1;SDS_P2;PMS_P1;PMS_P2;Temp;Humidity;BMP_temperature;BMP_pressure;BME280_temperature;BME280_humidity;BME280_pressure;Samples;Min_cycle;Max_cycle;Signal;HPM_P1;HPM_P2
2023/08/07 00:00:52;;;;;;;2.60;2.40;;;11.30;99.90;;;;;;4995589;28;20200;-68
2023/08/07 00:03:18;;;;;;;3.87;2.53;;;11.20;99.90;;;;;;4995653;28;20171;-68
2023/08/07 00:05:47;;;;;;;2.30;2.10;;;11.20;99.90;;;;;;4994518;28;20187;-68
2023/08/07 00:08:13;;;;;;;4.30;2.70;;;11.10;99.90;;;;;;4994720;28;20517;-68
2023/08/07 00:10:39;;;;;;;3.60;2.40;;;11.10;99.90;;;;;;4995243;28;20589;-68
2023/08/07 00:13:05;;;;;;;7.10;2.50;;;11.10;99.90;;;;;;4995317;28;20179;-68
2023/08/07 00:15:30;;;;;;;2.30;2.10;;;11.10;99.90;;;;;;4995194;28;20454;-68
2023/08/07 00:17:56;;;;;;;6.73;2.40;;;11.00;99.90;;;;;;4994321;28;20653;-67
2023/08/07 00:20:22;;;;;;;8.23;2.73;;;11.00;99.90;;;;;;4994297;28;20211;-67
2023/08/07 00:22:47;;;;;;;5.43;2.60;;;11.00;99.90;;;;;;4995266;28;20318;-68
2023/08/07 00:25:13;;;;;;;1.80;1.70;;;11.00;99.90;;;;;;4995373;28;20195;-68
2023/08/07 00:27:38;;;;;;;4.80;2.60;;;11.10;99.90;;;;;;4995086;28;20262;-68
2023/08/07 00:30:04;;;;;;;3.43;2.70;;;11.10;99.90;;;;;;4994413;28;20192;-67
2023/08/07 00:32:30;;;;;;;2.53;2.30;;;11.10;99.90;;;;;;4992284;28;20179;-68
2023/08/07 00:34:55;;;;;;;3.50;3.20;;;11.10;99.90;;;;;;4994862;28;20956;-67
2023/08/07 00:37:21;;;;;;;3.20;2.23;;;11.10;99.90;;;;;;4994652;28;20218;-67
2023/08/07 00:39:46;;;;;;;3.03;1.97;;;11.10;99.90;;;;;;4994052;28;20313;-68
2023/08/07 00:42:12;;;;;;;2.80;2.00;;;11.10;99.90;;;;;;4994765;28;20602;-67
2023/08/07 00:44:37;;;;;;;3.27;2.70;;;11.20;99.90;;;;;;4994768;28;20164;-67
2023/08/07 00:47:03;;;;;;;2.17;1.97;;;11.20;99.90;;;;;;4994138;28;20179;-67
2023/08/07 00:49:29;;;;;;;7.20;2.53;;;11.20;99.90;;;;;;4993961;28;20254;-67
2023/08/07 00:51:54;;;;;;;3.40;2.67;;;11.10;99.90;;;;;;4994677;28;20591;-67
2023/08/07 00:54:20;;;;;;;4.33;2.40;;;11.20;99.90;;;;;;4994523;28;20893;-67
2023/08/07 00:56:46;;;;;;;3.87;2.77;;;11.20;99.90;;;;;;4994665;28;20218;-67
2023/08/07 00:59:14;;;;;;;4.40;2.30;;;11.20;99.90;;;;;;4992830;28;20458;-67
2023/08/07 01:01:40;;;;;;;4.50;2.30;;;11.30;99.90;;;;;;4994341;28;20552;-67
2023/08/07 01:04:05;;;;;;;3.07;2.67;;;11.30;99.90;;;;;;4994439;28;20415;-68
2023/08/07 01:06:31;;;;;;;5.67;2.40;;;11.30;99.90;;;;;;4994435;28;20230;-68
2023/08/07 01:08:57;;;;;;;3.50;2.23;;;11.40;99.90;;;;;;4993534;28;20183;-67
2023/08/07 01:11:45;;;;;;;7.07;3.23;;;11.40;99.90;;;;;;4994351;28;20614;-67
2023/08/07 01:14:25;;;;;;;3.33;2.50;;;11.40;99.90;;;;;;4993240;28;20485;-67
2023/08/07 01:17:03;;;;;;;2.20;2.10;;;11.50;99.90;;;;;;4994214;28;20466;-67
2023/08/07 01:19:29;;;;;;;3.90;2.23;;;11.50;99.90;;;;;;4993221;28;20561;-68
2023/08/07 01:22:11;;;;;;;3.40;2.63;;;11.50;99.90;;;;;;4994102;28;20506;-68
2023/08/07 01:24:38;;;;;;;4.97;2.70;;;11.50;99.90;;;;;;4994013;28;20258;-68
2023/08/07 01:27:18;;;;;;;3.43;2.40;;;11.60;99.90;;;;;;4994027;28;20422;-68
2023/08/07 01:30:14;;;;;;;4.70;3.23;;;11.60;99.90;;;;;;4991836;28;20473;-68
2023/08/07 01:32:43;;;;;;;2.43;2.23;;;11.70;99.90;;;;;;4982948;28;20449;-68
2023/08/07 01:35:12;;;;;;;2.17;1.97;;;11.70;99.90;;;;;;4993685;28;20419;-67
2023/08/07 01:37:41;;;;;;;2.80;2.30;;;11.70;99.90;;;;;;4993830;28;20916;-68
2023/08/07 01:40:08;;;;;;;2.13;1.93;;;11.80;99.90;;;;;;4988080;28;20600;-67
2023/08/07 01:42:35;;;;;;;3.00;2.60;;;11.80;99.90;;;;;;4987850;28;20523;-67
2023/08/07 01:45:00;;;;;;;2.90;2.57;;;11.80;99.90;;;;;;4996414;28;20447;-68
2023/08/07 01:47:26;;;;;;;2.50;2.30;;;11.90;99.90;;;;;;5005300;28;20438;-67
2023/08/07 01:49:52;;;;;;;4.63;2.07;;;11.80;99.90;;;;;;5001847;28;20195;-67
2023/08/07 01:52:17;;;;;;;2.80;2.60;;;11.80;99.90;;;;;;4992477;28;20177;-67
2023/08/07 01:54:43;;;;;;;3.00;2.27;;;11.80;99.90;;;;;;5000201;28;20179;-67
2023/08/07 01:57:08;;;;;;;5.10;2.57;;;11.70;99.90;;;;;;5001023;28;20195;-67
2023/08/07 01:59:34;;;;;;;4.80;2.77;;;11.70;99.90;;;;;;5004707;28;20203;-68
2023/08/07 02:01:59;;;;;;;4.17;2.50;;;11.80;99.90;;;;;;5004264;28;20537;-68
2023/08/07 02:04:25;;;;;;;3.10;2.13;;;11.80;99.90;;;;;;4996388;28;20543;-67
2023/08/07 02:06:50;;;;;;;4.63;2.60;;;11.80;99.90;;;;;;4996752;28;20266;-67
2023/08/07 02:09:16;;;;;;;2.77;2.53;;;11.70;99.90;;;;;;5001104;28;20207;-68
2023/08/07 02:11:42;;;;;;;3.13;2.30;;;11.80;99.90;;;;;;5004178;28;20179;-68
2023/08/07 02:14:08;;;;;;;3.23;2.40;;;11.70;99.90;;;;;;5003398;28;20261;-68
2023/08/07 02:16:33;;;;;;;4.40;2.30;;;11.80;99.90;;;;;;4999133;28;20546;-68
2023/08/07 02:18:59;;;;;;;5.60;2.50;;;11.80;99.90;;;;;;4997172;28;20176;-68
2023/08/07 02:21:24;;;;;;;2.90;2.17;;;11.80;99.90;;;;;;5001509;28;20668;-67
2023/08/07 02:23:50;;;;;;;4.50;1.90;;;11.90;99.90;;;;;;4991994;28;20182;-68
2023/08/07 02:26:15;;;;;;;5.90;2.43;;;11.90;99.90;;;;;;4998424;28;20211;-67
2023/08/07 02:28:41;;;;;;;4.33;2.60;;;11.90;99.90;;;;;;5008084;28;20175;-68
2023/08/07 02:31:07;;;;;;;2.70;2.10;;;11.90;99.90;;;;;;5003397;28;20205;-67
2023/08/07 02:33:32;;;;;;;8.10;2.43;;;11.90;99.90;;;;;;4997175;28;20188;-67
2023/08/07 02:35:58;;;;;;;2.30;2.10;;;11.80;99.90;;;;;;4998313;28;20688;-68
2023/08/07 02:38:25;;;;;;;2.20;2.00;;;11.80;99.90;;;;;;5001631;28;20191;-68
2023/08/07 02:40:51;;;;;;;7.00;2.50;;;11.80;99.90;;;;;;5007053;28;20205;-68
2023/08/07 02:43:17;;;;;;;7.03;2.57;;;11.80;99.90;;;;;;4999626;28;21588;-67
2023/08/07 02:45:42;;;;;;;4.23;2.50;;;11.80;99.90;;;;;;4996222;28;20186;-68
2023/08/07 02:48:07;;;;;;;3.10;2.37;;;11.80;99.90;;;;;;5001924;28;20184;-68
2023/08/07 02:50:33;;;;;;;3.33;2.60;;;11.80;99.90;;;;;;5003114;28;20249;-68
2023/08/07 02:53:00;;;;;;;3.03;2.13;;;11.70;99.90;;;;;;5003604;28;20205;-68
2023/08/07 02:55:25;;;;;;;2.30;2.03;;;11.80;99.90;;;;;;4996002;28;20627;-67
2023/08/07 02:57:51;;;;;;;7.80;3.10;;;11.80;99.90;;;;;;5005176;28;20474;-68
2023/08/07 03:00:16;;;;;;;2.80;2.37;;;11.70;99.90;;;;;;4995387;28;20581;-68
2023/08/07 03:02:42;;;;;;;3.87;2.43;;;11.70;99.90;;;;;;5010342;28;20179;-67
2023/08/07 03:05:08;;;;;;;4.83;3.00;;;11.60;99.90;;;;;;4996015;28;20178;-67
2023/08/07 03:07:33;;;;;;;3.07;2.87;;;11.60;99.90;;;;;;4999743;28;20183;-67
2023/08/07 03:09:59;;;;;;;3.30;2.63;;;11.60;99.90;;;;;;5006626;28;20927;-67
2023/08/07 03:12:24;;;;;;;5.87;2.63;;;11.50;99.90;;;;;;5003518;28;20196;-67
2023/08/07 03:14:50;;;;;;;3.20;2.77;;;11.40;99.90;;;;;;5007243;28;20175;-67
2023/08/07 03:17:16;;;;;;;7.53;2.97;;;11.30;99.90;;;;;;5004566;28;20310;-68
2023/08/07 03:19:43;;;;;;;3.00;2.50;;;11.30;99.90;;;;;;4993216;28;20715;-68
2023/08/07 03:22:09;;;;;;;10.37;2.40;;;11.20;99.90;;;;;;4999697;28;20214;-67
2023/08/07 03:24:34;;;;;;;2.63;2.40;;;11.20;99.90;;;;;;4995106;28;20955;-67
2023/08/07 03:27:00;;;;;;;2.60;2.40;;;11.20;99.90;;;;;;5004093;28;20175;-67
2023/08/07 03:29:25;;;;;;;2.93;2.23;;;11.20;99.90;;;;;;5000454;28;20211;-68
2023/08/07 03:31:51;;;;;;;3.27;2.50;;;11.10;99.90;;;;;;5003221;28;20187;-68
2023/08/07 03:34:16;;;;;;;5.50;2.87;;;11.10;99.90;;;;;;5004998;28;20725;-67
2023/08/07 03:36:42;;;;;;;3.97;2.20;;;11.10;99.90;;;;;;5005908;28;20203;-67
2023/08/07 03:39:08;;;;;;;4.50;3.97;;;11.10;99.90;;;;;;5006095;28;20231;-67
2023/08/07 03:41:33;;;;;;;3.10;2.13;;;11.10;99.90;;;;;;4995422;28;20187;-68
2023/08/07 03:43:59;;;;;;;7.07;2.40;;;11.10;99.90;;;;;;4994719;28;20770;-67
2023/08/07 03:46:24;;;;;;;6.57;2.33;;;11.10;99.90;;;;;;4995498;28;20191;-67
2023/08/07 03:48:50;;;;;;;2.10;1.90;;;11.10;99.90;;;;;;5005269;28;20206;-67
2023/08/07 03:51:16;;;;;;;3.70;2.10;;;11.20;99.90;;;;;;5005498;28;20187;-67
2023/08/07 03:53:42;;;;;;;3.17;2.23;;;11.20;99.90;;;;;;5001975;28;20672;-67
2023/08/07 03:56:07;;;;;;;6.20;2.70;;;11.20;99.90;;;;;;4994238;28;20469;-68
2023/08/07 03:58:33;;;;;;;4.67;2.30;;;11.20;99.90;;;;;;4992311;28;20180;-67
2023/08/07 04:00:58;;;;;;;4.17;2.50;;;11.20;99.90;;;;;;4995010;28;20287;-67
2023/08/07 04:03:24;;;;;;;9.80;2.67;;;11.20;99.90;;;;;;5001408;28;20498;-68
2023/08/07 04:05:54;;;;;;;5.03;2.10;;;11.20;99.90;;;;;;4998335;28;20191;-68
2023/08/07 04:08:23;;;;;;;7.23;2.70;;;11.20;99.90;;;;;;4993845;28;20266;-67
2023/08/07 04:11:00;;;;;;;5.90;2.40;;;11.10;99.90;;;;;;5004239;28;20457;-68
2023/08/07 04:13:26;;;;;;;3.13;2.47;;;11.10;99.90;;;;;;5003088;28;20437;-67
2023/08/07 04:15:51;;;;;;;4.90;2.80;;;11.10;99.90;;;;;;4994663;28;20472;-68
2023/08/07 04:18:17;;;;;;;2.87;2.50;;;11.10;99.90;;;;;;5000408;28;20278;-68
2023/08/07 04:20:42;;;;;;;2.57;2.37;;;11.00;99.90;;;;;;5006120;28;20207;-67
2023/08/07 04:23:08;;;;;;;3.40;2.60;;;11.00;99.90;;;;;;5006014;28;20258;-68
2023/08/07 04:25:34;;;;;;;3.30;3.00;;;11.00;99.90;;;;;;5001716;28;20183;-67
2023/08/07 04:27:59;;;;;;;3.30;2.77;;;10.90;99.90;;;;;;5001804;28;20971;-67
2023/08/07 04:30:25;;;;;;;5.93;2.70;;;11.00;99.90;;;;;;5004351;28;20235;-67
2023/08/07 04:32:50;;;;;;;4.03;2.50;;;10.90;99.90;;;;;;5007540;28;20190;-68
2023/08/07 04:35:16;;;;;;;3.07;2.77;;;10.90;99.90;;;;;;5004615;28;20190;-68
2023/08/07 04:37:41;;;;;;;6.83;2.30;;;11.00;99.90;;;;;;4996250;28;20188;-68
2023/08/07 04:40:08;;;;;;;3.00;2.13;;;11.00;99.90;;;;;;5001261;28;20569;-67
2023/08/07 04:42:34;;;;;;;5.70;2.80;;;11.00;99.90;;;;;;5005892;28;20175;-68
2023/08/07 04:44:59;;;;;;;6.87;2.00;;;11.10;99.90;;;;;;4997752;28;20458;-68
2023/08/07 04:47:25;;;;;;;4.43;2.57;;;11.10;99.90;;;;;;4991389;28;20191;-67
2023/08/07 04:49:50;;;;;;;4.40;2.40;;;11.10;99.90;;;;;;4998094;28;20250;-68
2023/08/07 04:52:16;;;;;;;3.33;2.70;;;11.20;99.90;;;;;;4994186;28;20188;-67
2023/08/07 04:54:41;;;;;;;2.53;2.33;;;11.20;99.90;;;;;;4990630;28;20605;-67
2023/08/07 04:57:07;;;;;;;11.93;2.40;;;11.20;99.90;;;;;;4992335;28;20577;-67
2023/08/07 04:59:32;;;;;;;4.27;2.37;;;11.30;99.90;;;;;;4998621;28;20246;-68
2023/08/07 05:01:58;;;;;;;3.67;2.40;;;11.30;99.90;;;;;;5007853;28;20190;-68
2023/08/07 05:04:23;;;;;;;2.70;2.27;;;11.30;99.90;;;;;;5003030;28;20206;-68
2023/08/07 05:06:49;;;;;;;4.47;2.47;;;11.40;99.90;;;;;;4990554;28;20649;-68
2023/08/07 05:09:14;;;;;;;4.60;2.77;;;11.40;99.90;;;;;;4997994;28;20231;-68
2023/08/07 05:11:40;;;;;;;3.00;2.47;;;11.50;99.90;;;;;;5004979;28;20270;-68
2023/08/07 05:14:05;;;;;;;10.63;2.50;;;11.50;99.90;;;;;;5005072;28;20641;-68
2023/08/07 05:16:31;;;;;;;2.77;2.20;;;11.60;99.90;;;;;;4991443;28;20212;-67
2023/08/07 05:18:56;;;;;;;7.40;2.33;;;11.60;99.90;;;;;;4991450;28;20199;-67
2023/08/07 05:21:22;;;;;;;2.40;1.70;;;11.70;99.90;;;;;;4996733;28;20184;-68
2023/08/07 05:23:48;;;;;;;9.10;2.63;;;11.80;99.90;;;;;;5005557;28;20186;-68
2023/08/07 05:26:13;;;;;;;5.97;2.50;;;11.90;99.90;;;;;;4997357;28;20188;-68
2023/08/07 05:28:39;;;;;;;7.23;2.30;;;12.00;99.90;;;;;;4991630;28;20616;-68
2023/08/07 05:31:04;;;;;;;3.40;2.47;;;12.10;99.90;;;;;;5004088;28;20286;-68
2023/08/07 05:33:30;;;;;;;3.90;2.57;;;12.20;99.90;;;;;;4998913;28;20191;-68
2023/08/07 05:35:55;;;;;;;4.57;2.30;;;12.20;99.90;;;;;;4992273;28;20253;-68
2023/08/07 05:38:21;;;;;;;7.43;2.50;;;12.30;99.90;;;;;;4999541;28;20302;-68
2023/08/07 05:40:46;;;;;;;3.10;2.23;;;12.30;99.90;;;;;;4994325;28;20207;-68
2023/08/07 05:43:12;;;;;;;5.23;2.30;;;12.30;99.90;;;;;;4994810;28;20195;-68
2023/08/07 05:45:38;;;;;;;4.27;2.43;;;12.40;99.90;;;;;;4992892;28;20187;-68
2023/08/07 05:48:04;;;;;;;4.90;2.77;;;12.50;99.90;;;;;;4991436;28;20815;-69
2023/08/07 05:50:29;;;;;;;4.87;2.60;;;12.60;99.90;;;;;;5008496;28;20609;-69
2023/08/07 05:52:55;;;;;;;2.57;2.20;;;12.60;99.90;;;;;;4999526;28;20183;-69
2023/08/07 05:55:20;;;;;;;6.93;2.40;;;12.70;99.90;;;;;;5002082;28;20186;-69
2023/08/07 05:57:46;;;;;;;2.43;2.10;;;12.70;99.90;;;;;;5001096;28;20266;-69
2023/08/07 06:00:17;;;;;;;2.93;2.47;;;12.80;99.90;;;;;;4990020;28;20207;-66
2023/08/07 06:02:43;;;;;;;4.00;2.73;;;12.80;99.90;;;;;;4992636;28;20699;-69
2023/08/07 06:05:09;;;;;;;7.13;2.30;;;12.90;99.90;;;;;;5001279;28;20510;-69
2023/08/07 06:07:35;;;;;;;2.93;2.10;;;12.90;99.90;;;;;;4993329;28;20581;-69
2023/08/07 06:10:01;;;;;;;4.90;2.77;;;13.00;99.90;;;;;;4992470;28;20441;-69
2023/08/07 06:12:26;;;;;;;4.03;1.97;;;13.00;99.90;;;;;;4992001;28;20258;-69
2023/08/07 06:14:52;;;;;;;5.67;2.53;;;12.90;99.90;;;;;;4993125;28;20187;-69
2023/08/07 06:17:18;;;;;;;3.43;2.40;;;12.90;99.90;;;;;;4993064;28;20493;-69
2023/08/07 06:19:43;;;;;;;6.37;2.20;;;13.00;99.90;;;;;;4992275;28;20719;-69
2023/08/07 06:22:09;;;;;;;2.70;1.73;;;13.00;99.90;;;;;;4992983;28;20259;-69
2023/08/07 06:24:34;;;;;;;3.43;2.33;;;13.00;99.90;;;;;;4992961;28;20258;-69
2023/08/07 06:27:02;;;;;;;3.60;2.70;;;13.10;99.90;;;;;;4992983;28;20205;-69
2023/08/07 06:29:27;;;;;;;3.37;1.90;;;13.10;99.90;;;;;;4992177;28;20227;-69
2023/08/07 06:31:53;;;;;;;5.77;2.47;;;13.10;99.90;;;;;;4992888;28;20474;-69
2023/08/07 06:34:18;;;;;;;2.97;2.47;;;13.20;99.90;;;;;;4992866;28;20172;-69
2023/08/07 06:36:44;;;;;;;2.97;2.00;;;13.30;99.90;;;;;;4992513;28;20199;-69
2023/08/07 06:39:09;;;;;;;5.33;2.37;;;13.30;99.90;;;;;;4992037;28;20567;-69
2023/08/07 06:41:36;;;;;;;3.00;2.37;;;13.40;99.90;;;;;;4992755;28;20544;-69
2023/08/07 06:44:01;;;;;;;5.30;1.90;;;13.40;99.90;;;;;;4991249;28;20175;-69
2023/08/07 06:46:27;;;;;;;6.43;2.23;;;13.40;99.90;;;;;;5010487;28;20987;-69
2023/08/07 06:48:53;;;;;;;3.03;2.60;;;13.60;99.90;;;;;;5011433;28;20174;-69
2023/08/07 06:51:19;;;;;;;6.03;2.50;;;13.70;99.90;;;;;;5012264;28;20793;-69
2023/08/07 06:53:44;;;;;;;7.63;2.60;;;13.70;99.90;;;;;;5012205;28;20178;-69
2023/08/07 06:56:10;;;;;;;2.73;2.53;;;13.80;99.90;;;;;;5012066;28;20190;-69
2023/08/07 06:58:35;;;;;;;2.70;2.03;;;13.80;99.90;;;;;;5011283;28;20570;-69
2023/08/07 07:01:01;;;;;;;3.50;2.37;;;13.90;99.90;;;;;;5011972;28;20191;-69
2023/08/07 07:03:26;;;;;;;5.10;2.50;;;14.00;99.90;;;;;;5012122;28;20171;-69
2023/08/07 07:05:52;;;;;;;4.47;2.70;;;14.20;99.90;;;;;;5012149;28;20614;-68
2023/08/07 07:08:17;;;;;;;3.40;2.47;;;14.30;99.90;;;;;;5011368;28;20175;-69
2023/08/07 07:10:43;;;;;;;13.00;3.10;;;14.30;99.90;;;;;;5011916;28;20198;-68
2023/08/07 07:13:09;;;;;;;2.23;2.13;;;14.50;99.90;;;;;;5011961;28;20628;-68
2023/08/07 07:15:35;;;;;;;12.73;2.90;;;14.50;99.90;;;;;;5011931;28;20190;-68
2023/08/07 07:18:01;;;;;;;2.90;2.47;;;14.60;99.90;;;;;;5026877;28;20429;-68
2023/08/07 07:20:27;;;;;;;6.10;3.30;;;14.60;99.90;;;;;;5010926;28;20515;-68
2023/08/07 07:22:53;;;;;;;2.37;1.90;;;14.50;99.90;;;;;;5011249;28;20409;-68
2023/08/07 07:25:18;;;;;;;2.80;2.60;;;14.60;99.90;;;;;;5011460;28;20179;-68
2023/08/07 07:27:44;;;;;;;7.97;2.40;;;14.60;99.90;;;;;;5011922;28;20182;-69
2023/08/07 07:30:10;;;;;;;3.53;2.40;;;14.60;99.90;;;;;;5011249;28;20202;-68
2023/08/07 07:32:35;;;;;;;7.83;7.03;;;14.50;99.90;;;;;;5011846;28;20202;-69
2023/08/07 07:35:01;;;;;;;2.63;2.37;;;14.40;99.90;;;;;;5011997;28;20899;-68
2023/08/07 07:37:27;;;;;;;5.20;2.73;;;14.50;99.90;;;;;;5011872;28;20285;-69
2023/08/07 07:39:52;;;;;;;4.30;2.10;;;14.40;99.90;;;;;;5011042;28;20202;-69
2023/08/07 07:42:18;;;;;;;2.43;2.20;;;14.70;99.90;;;;;;5011921;28;20179;-69
2023/08/07 07:44:43;;;;;;;4.43;2.03;;;15.10;99.90;;;;;;5011824;28;20167;-69
2023/08/07 07:47:09;;;;;;;2.20;2.00;;;15.50;99.90;;;;;;5012157;28;20183;-69
2023/08/07 07:49:34;;;;;;;2.80;2.00;;;15.50;99.90;;;;;;5014778;28;20577;-68
2023/08/07 07:52:00;;;;;;;2.10;1.57;;;15.50;99.90;;;;;;5015374;28;20607;-69
2023/08/07 07:54:25;;;;;;;4.03;3.00;;;15.60;99.90;;;;;;5015382;28;20228;-68
2023/08/07 07:56:51;;;;;;;2.30;2.10;;;15.80;99.90;;;;;;5013457;28;20289;-69
2023/08/07 07:59:16;;;;;;;2.70;2.10;;;16.20;99.90;;;;;;5014170;28;20191;-69
2023/08/07 08:01:42;;;;;;;3.93;1.67;;;16.30;99.90;;;;;;5015163;28;20640;-69
2023/08/07 08:04:09;;;;;;;2.50;1.80;;;16.60;99.90;;;;;;5015257;28;20171;-69
2023/08/07 08:06:35;;;;;;;2.17;1.97;;;16.80;99.90;;;;;;5015052;28;20198;-69
2023/08/07 08:09:04;;;;;;;2.83;1.87;;;17.10;99.90;;;;;;5014252;28;20476;-69
2023/08/07 08:11:30;;;;;;;1.80;1.70;;;16.90;99.90;;;;;;5014803;28;20167;-69
2023/08/07 08:13:55;;;;;;;1.97;1.87;;;16.70;99.90;;;;;;5014669;28;20444;-69
2023/08/07 08:16:21;;;;;;;1.90;1.80;;;16.60;99.90;;;;;;5014749;28;20465;-69
2023/08/07 08:18:46;;;;;;;2.40;2.20;;;16.40;99.90;;;;;;5013852;28;20171;-69
2023/08/07 08:21:12;;;;;;;2.33;1.80;;;16.30;99.90;;;;;;4994093;28;20363;-69
2023/08/07 08:23:37;;;;;;;2.60;1.70;;;16.30;99.90;;;;;;4995850;28;20587;-69
2023/08/07 08:26:03;;;;;;;2.67;1.90;;;16.30;99.90;;;;;;4994965;28;20208;-69
2023/08/07 08:28:29;;;;;;;1.70;1.60;;;16.50;99.90;;;;;;5012704;28;20282;-69
2023/08/07 08:30:54;;;;;;;4.63;2.03;;;16.60;99.90;;;;;;5014446;28;20284;-70
2023/08/07 08:33:20;;;;;;;3.40;1.90;;;16.70;99.90;;;;;;5014217;28;20171;-69
2023/08/07 08:35:45;;;;;;;2.57;1.70;;;16.90;99.90;;;;;;5014614;28;20199;-69
2023/08/07 08:38:11;;;;;;;2.37;2.07;;;17.30;99.90;;;;;;5013664;28;20185;-70
2023/08/07 08:40:39;;;;;;;6.03;1.93;;;17.30;99.90;;;;;;4995757;28;20575;-69
2023/08/07 08:43:05;;;;;;;3.13;2.10;;;17.60;99.90;;;;;;4994739;28;20167;-69
2023/08/07 08:45:32;;;;;;;1.73;1.43;;;18.10;99.90;;;;;;4994589;28;20772;-69
2023/08/07 08:48:03;;;;;;;2.23;2.03;;;18.40;99.90;;;;;;4994808;28;20521;-70
2023/08/07 08:50:29;;;;;;;2.37;2.17;;;18.60;99.90;;;;;;4993498;28;20431;-69
2023/08/07 08:52:56;;;;;;;2.30;1.90;;;19.00;99.90;;;;;;4994429;28;20481;-70
2023/08/07 08:55:23;;;;;;;2.00;1.80;;;19.10;99.90;;;;;;4994130;28;20215;-69
2023/08/07 08:57:49;;;;;;;3.43;1.50;;;19.30;99.90;;;;;;4993610;28;20419;-70
2023/08/07 09:00:20;;;;;;;7.20;2.00;;;19.60;99.90;;;;;;4993577;28;20497;-69
2023/08/07 09:02:47;;;;;;;2.10;2.00;;;19.80;99.50;;;;;;4994503;28;20419;-69
2023/08/07 09:05:15;;;;;;;1.70;1.60;;;20.00;98.70;;;;;;4993881;28;20434;-70
2023/08/07 09:07:41;;;;;;;3.17;2.30;;;20.00;98.60;;;;;;4994202;28;20869;-71
2023/08/07 09:10:09;;;;;;;2.00;1.77;;;20.00;98.80;;;;;;4993479;28;20526;-70
2023/08/07 09:12:38;;;;;;;1.90;1.70;;;20.00;97.60;;;;;;4993599;28;20659;-70
2023/08/07 09:15:05;;;;;;;1.60;1.50;;;20.00;98.90;;;;;;4995221;28;20577;-70
2023/08/07 09:17:34;;;;;;;3.23;1.83;;;19.70;99.90;;;;;;5013366;28;20470;-69
2023/08/07 09:20:00;;;;;;;1.60;1.50;;;19.90;99.90;;;;;;5012444;28;20461;-70
2023/08/07 09:22:26;;;;;;;2.43;1.60;;;19.60;98.70;;;;;;5013403;28;20421;-70
2023/08/07 09:24:52;;;;;;;1.50;1.40;;;19.60;98.10;;;;;;5013311;28;20464;-70
2023/08/07 09:27:17;;;;;;;2.53;1.80;;;19.40;97.60;;;;;;5013359;28;20175;-70
2023/08/07 09:29:43;;;;;;;1.77;1.67;;;19.40;98.10;;;;;;5012591;28;20470;-70
2023/08/07 09:32:13;;;;;;;2.80;1.10;;;19.50;98.50;;;;;;5013201;28;20175;-70
2023/08/07 09:34:40;;;;;;;1.73;1.40;;;19.70;97.50;;;;;;5013105;28;20796;-70
2023/08/07 09:37:06;;;;;;;2.27;1.20;;;19.40;98.50;;;;;;5013095;28;20453;-70
2023/08/07 09:39:32;;;;;;;2.20;2.00;;;20.00;97.70;;;;;;5012196;28;20496;-70
2023/08/07 09:41:58;;;;;;;2.30;2.10;;;20.30;97.40;;;;;;5013057;28;20496;-70
2023/08/07 09:44:23;;;;;;;1.67;1.40;;;20.60;95.60;;;;;;5013067;28;20633;-70
2023/08/07 09:46:49;;;;;;;1.73;1.63;;;20.50;95.70;;;;;;5012979;28;20237;-70
2023/08/07 09:49:14;;;;;;;1.87;1.67;;;20.20;95.20;;;;;;5012018;28;20187;-70
2023/08/07 09:51:47;;;;;;;1.60;1.40;;;20.20;96.20;;;;;;5013087;28;20170;-70
2023/08/07 09:54:13;;;;;;;2.27;2.07;;;20.00;95.20;;;;;;5012572;28;20540;-70
2023/08/07 09:56:40;;;;;;;1.70;1.60;;;20.30;95.50;;;;;;5012835;28;20515;-69
2023/08/07 09:59:06;;;;;;;1.87;1.77;;;20.10;95.50;;;;;;5011970;28;20190;-70
2023/08/07 10:01:32;;;;;;;2.00;1.73;;;20.10;94.90;;;;;;5012413;28;20428;-70
2023/08/07 10:03:58;;;;;;;6.80;1.70;;;20.50;94.50;;;;;;5012710;28;20414;-70
2023/08/07 10:06:24;;;;;;;4.17;1.67;;;20.10;96.30;;;;;;5012780;28;20637;-70
2023/08/07 10:08:51;;;;;;;2.10;1.87;;;20.00;96.60;;;;;;5011722;28;20461;-69
2023/08/07 10:11:16;;;;;;;1.70;1.60;;;19.60;97.70;;;;;;5012043;28;20430;-69
2023/08/07 10:13:42;;;;;;;2.97;1.47;;;19.60;97.90;;;;;;5012546;28;20414;-70
2023/08/07 10:16:07;;;;;;;2.37;1.97;;;20.00;97.10;;;;;;5002523;28;20191;-70
2023/08/07 10:18:34;;;;;;;2.00;1.77;;;21.50;95.40;;;;;;4992074;28;20175;-70
2023/08/07 10:21:02;;;;;;;3.30;1.60;;;22.20;90.80;;;;;;4992624;28;20199;-72
2023/08/07 10:23:27;;;;;;;2.20;1.67;;;22.30;90.40;;;;;;4992544;28;20434;-70
2023/08/07 10:25:53;;;;;;;2.73;1.57;;;21.90;87.60;;;;;;4992890;28;20426;-70
2023/08/07 10:28:20;;;;;;;2.47;2.27;;;21.60;87.90;;;;;;4991739;28;20179;-69
2023/08/07 10:30:46;;;;;;;2.70;1.80;;;21.30;88.50;;;;;;4992571;28;20439;-69
2023/08/07 10:33:13;;;;;;;2.30;1.80;;;21.20;87.80;;;;;;4992686;28;20437;-69
2023/08/07 10:35:48;;;;;;;3.93;1.57;;;20.70;90.30;;;;;;4992447;28;20167;-70
2023/08/07 10:38:14;;;;;;;2.43;2.07;;;20.30;91.50;;;;;;5006800;28;20426;-67
2023/08/07 10:41:02;;;;;;;1.90;1.80;;;20.00;91.00;;;;;;4997750;28;20445;-69
2023/08/07 10:43:29;;;;;;;1.83;1.63;;;20.10;91.20;;;;;;4997029;28;20797;-68
2023/08/07 10:46:04;;;;;;;4.20;2.27;;;19.90;91.70;;;;;;4999733;28;21105;-66
2023/08/07 10:48:29;;;;;;;2.10;1.90;;;20.10;92.10;;;;;;4990300;28;20441;-69
2023/08/07 10:50:56;;;;;;;2.17;2.03;;;20.40;91.80;;;;;;4996543;28;20433;-70
2023/08/07 10:53:33;;;;;;;2.63;2.40;;;20.20;91.10;;;;;;4995541;28;20599;-69
2023/08/07 10:56:07;;;;;;;2.27;1.93;;;20.00;91.10;;;;;;4973204;28;20451;-68
2023/08/07 10:58:35;;;;;;;2.60;2.37;;;20.10;90.80;;;;;;4972326;28;20430;-69
2023/08/07 11:01:26;;;;;;;3.40;2.80;;;20.30;91.30;;;;;;4996797;28;20447;-69
2023/08/07 11:03:59;;;;;;;1.80;1.70;;;20.60;91.00;;;;;;4992492;28;20423;-70
2023/08/07 11:06:33;;;;;;;2.60;1.60;;;20.90;90.80;;;;;;4992555;28;20410;-70
2023/08/07 11:09:00;;;;;;;2.20;2.00;;;21.20;90.80;;;;;;4991877;28;20415;-70
2023/08/07 11:11:27;;;;;;;1.77;1.67;;;22.30;87.70;;;;;;4992317;28;20423;-70
2023/08/07 11:13:52;;;;;;;1.70;1.60;;;24.10;79.40;;;;;;4992282;28;20842;-70
2023/08/07 11:16:20;;;;;;;1.90;1.70;;;24.70;76.00;;;;;;5003884;28;20441;-70
2023/08/07 11:18:47;;;;;;;2.27;1.90;;;23.30;76.70;;;;;;5026243;28;20206;-70
2023/08/07 11:21:16;;;;;;;2.40;2.20;;;22.60;80.20;;;;;;5011997;28;20416;-69
2023/08/07 11:23:41;;;;;;;4.80;2.60;;;21.50;83.00;;;;;;5015000;28;20436;-70
2023/08/07 11:26:09;;;;;;;2.40;2.20;;;20.60;90.10;;;;;;5039688;22;20588;-66
2023/08/07 11:28:34;;;;;;;2.90;2.70;;;20.40;92.70;;;;;;5015050;28;20250;-66
2023/08/07 11:31:00;;;;;;;2.30;2.00;;;20.00;93.30;;;;;;5016164;28;20425;-68
2023/08/07 11:33:27;;;;;;;2.50;2.30;;;19.80;95.20;;;;;;5015943;28;20167;-68
2023/08/07 11:35:53;;;;;;;3.77;2.50;;;19.60;95.60;;;;;;5002555;28;20232;-68
2023/08/07 11:38:34;;;;;;;2.93;2.63;;;19.00;96.30;;;;;;4995178;28;20419;-68
2023/08/07 11:41:01;;;;;;;2.57;2.37;;;18.70;98.20;;;;;;4996051;28;20522;-68
2023/08/07 11:43:29;;;;;;;2.47;2.27;;;18.40;99.70;;;;;;4995973;28;20526;-69
2023/08/07 11:45:56;;;;;;;2.80;2.60;;;18.10;99.90;;;;;;4995821;28;20816;-70
2023/08/07 11:48:25;;;;;;;4.10;2.17;;;17.70;99.90;;;;;;4995159;28;20806;-70
2023/08/07 11:50:51;;;;;;;4.20;2.33;;;17.60;99.90;;;;;;4995643;28;20509;-70
2023/08/07 11:53:17;;;;;;;2.70;2.50;;;17.50;99.90;;;;;;4995759;28;21063;-70
2023/08/07 11:55:56;;;;;;;2.13;2.03;;;17.30;99.90;;;;;;4995524;28;20572;-70
2023/08/07 11:58:23;;;;;;;2.40;2.20;;;17.40;99.90;;;;;;5001930;28;20432;-70
2023/08/07 12:00:49;;;;;;;2.80;2.30;;;17.40;99.90;;;;;;5004389;28;20426;-68
2023/08/07 12:03:38;;;;;;;3.00;2.07;;;17.40;99.90;;;;;;4996745;28;20445;-68
2023/08/07 12:06:05;;;;;;;2.70;2.00;;;17.30;99.90;;;;;;4996227;28;20259;-68
2023/08/07 12:08:33;;;;;;;2.63;2.43;;;17.10;99.90;;;;;;4994621;28;20804;-69
2023/08/07 12:11:01;;;;;;;3.83;2.40;;;16.90;99.90;;;;;;5013851;28;20501;-68
2023/08/07 12:13:27;;;;;;;6.20;2.27;;;17.10;99.90;;;;;;5015612;28;20418;-68
2023/08/07 12:15:56;;;;;;;4.03;2.50;;;17.10;99.90;;;;;;5007135;28;21014;-68
2023/08/07 12:18:23;;;;;;;4.00;2.30;;;17.10;99.90;;;;;;4995465;28;20167;-68
2023/08/07 12:20:51;;;;;;;3.03;2.73;;;16.80;99.90;;;;;;4995838;28;20490;-68
2023/08/07 12:23:18;;;;;;;3.50;3.20;;;16.60;99.90;;;;;;4995594;28;20443;-67
2023/08/07 12:25:44;;;;;;;3.20;2.77;;;16.60;99.90;;;;;;4993711;28;20481;-67
2023/08/07 12:28:10;;;;;;;5.50;4.13;;;16.50;99.90;;;;;;4994853;28;20513;-68
2023/08/07 12:30:37;;;;;;;4.47;2.37;;;16.60;99.90;;;;;;4994730;28;20848;-68
2023/08/07 12:33:04;;;;;;;2.70;2.50;;;16.70;99.90;;;;;;4994446;28;20546;-68
2023/08/07 12:35:30;;;;;;;2.60;2.40;;;16.90;99.90;;;;;;4994543;28;20489;-67
2023/08/07 12:37:56;;;;;;;3.10;2.80;;;17.10;99.90;;;;;;4994751;28;20848;-68
2023/08/07 12:40:22;;;;;;;3.20;2.20;;;17.60;99.90;;;;;;4994120;28;20415;-67
2023/08/07 12:42:51;;;;;;;4.30;2.90;;;18.20;99.90;;;;;;4994759;28;20175;-67